sensor_id;sensor_type;location;lat;lon;timestamp;pressure;altitude;pressure_sealevel;temperature;humidity
77147;BME280;66121;52.584;9.694;2023-04-01T00:00:21;99147.47;;;9.24;97.16
77147;BME280;66121;52.584;9.694;2023-04-01T00:02:47;99157.66;;;9.27;97.40
77147;BME280;66121;52.584;9.694;2023-04-01T00:05:12;99151.78;;;9.25;97.65
77147;BME280;66121;52.584;9.694;2023-04-01T00:07:39;99149.41;;;9.27;97.50
77147;BME280;66121;52.584;9.694;2023-04-01T00:10:07;99156.09;;;9.26;98.03
77147;BME280;66121;52.584;9.694;2023-04-01T00:12:33;99154.91;;;9.27;97.81
77147;BME280;66121;52.584;9.694;2023-04-01T00:14:58;99161.97;;;9.28;97.12
77147;BME280;66121;52.584;9.694;2023-04-01T00:17:23;99151.78;;;9.25;97.24
77147;BME280;66121;52.584;9.694;2023-04-01T00:19:49;99145.78;;;9.34;97.00
77147;BME280;66121;52.584;9.694;2023-04-01T00:22:14;99159.56;;;9.30;97.40
77147;BME280;66121;52.584;9.694;2023-04-01T00:24:40;99150.13;;;9.31;97.95
77147;BME280;66121;52.584;9.694;2023-04-01T00:27:05;99150.50;;;9.33;97.46
77147;BME280;66121;52.584;9.694;2023-04-01T00:29:30;99145.78;;;9.34;97.34
77147;BME280;66121;52.584;9.694;2023-04-01T00:31:57;99145.41;;;9.32;97.35
77147;BME280;66121;52.584;9.694;2023-04-01T00:34:22;99152.91;;;9.28;97.61
77147;BME280;66121;52.584;9.694;2023-04-01T00:36:49;99144.31;;;9.26;97.49
77147;BME280;66121;52.584;9.694;2023-04-01T00:39:15;99142.34;;;9.23;97.65
77147;BME280;66121;52.584;9.694;2023-04-01T00:41:40;99141.22;;;9.20;97.52
77147;BME280;66121;52.584;9.694;2023-04-01T00:44:16;99146.59;;;9.31;97.26
77147;BME280;66121;52.584;9.694;2023-04-01T00:46:43;99153.34;;;9.26;97.28
77147;BME280;66121;52.584;9.694;2023-04-01T00:49:09;99152.16;;;9.27;97.60
77147;BME280;66121;52.584;9.694;2023-04-01T00:51:35;99150.59;;;9.26;98.04
77147;BME280;66121;52.584;9.694;2023-04-01T00:54:03;99146.66;;;9.27;97.80
77147;BME280;66121;52.584;9.694;2023-04-01T00:56:46;99150.13;;;9.31;97.57
77147;BME280;66121;52.584;9.694;2023-04-01T00:59:18;99151.38;;;9.27;96.97
77147;BME280;66121;52.584;9.694;2023-04-01T01:01:46;99157.69;;;9.24;98.05
77147;BME280;66121;52.584;9.694;2023-04-01T01:04:22;99151.47;;;9.20;97.91
77147;BME280;66121;52.584;9.694;2023-04-01T01:12:39;99156.22;;;9.16;98.47
77147;BME280;66121;52.584;9.694;2023-04-01T01:20:48;99154.94;;;9.24;98.37
77147;BME280;66121;52.584;9.694;2023-04-01T01:37:29;99138.09;;;9.18;97.49
77147;BME280;66121;52.584;9.694;2023-04-01T01:39:58;99151.41;;;9.23;97.68
77147;BME280;66121;52.584;9.694;2023-04-01T01:42:26;99158.84;;;9.26;97.48
77147;BME280;66121;52.584;9.694;2023-04-01T01:44:55;99148.56;;;9.30;97.20
77147;BME280;66121;52.584;9.694;2023-04-01T01:47:22;99143.13;;;9.27;97.09
77147;BME280;66121;52.584;9.694;2023-04-01T01:49:49;99148.53;;;9.34;96.91
77147;BME280;66121;52.584;9.694;2023-04-01T01:52:17;99145.81;;;9.30;96.98
77147;BME280;66121;52.584;9.694;2023-04-01T01:54:48;99151.47;;;9.20;97.24
77147;BME280;66121;52.584;9.694;2023-04-01T01:57:14;99147.84;;;9.26;97.41
77147;BME280;66121;52.584;9.694;2023-04-01T01:59:43;99141.59;;;9.22;97.71
77147;BME280;66121;52.584;9.694;2023-04-01T02:02:12;99149.47;;;9.20;97.25
77147;BME280;66121;52.584;9.694;2023-04-01T02:04:40;99144.34;;;9.22;96.21
77147;BME280;66121;52.584;9.694;2023-04-01T02:07:11;99147.41;;;9.28;96.93
77147;BME280;66121;52.584;9.694;2023-04-01T02:09:39;99153.78;;;9.21;96.54
77147;BME280;66121;52.584;9.694;2023-04-01T02:12:06;99153.44;;;9.19;96.87
77147;BME280;66121;52.584;9.694;2023-04-01T02:14:52;99153.19;;;9.06;96.97
77147;BME280;66121;52.584;9.694;2023-04-01T02:17:22;99146.44;;;9.11;97.19
77147;BME280;66121;52.584;9.694;2023-04-01T02:19:57;99143.84;;;8.97;96.57
77147;BME280;66121;52.584;9.694;2023-04-01T02:22:33;99149.31;;;9.00;97.27
77147;BME280;66121;52.584;9.694;2023-04-01T02:25:05;99146.91;;;9.02;97.26
77147;BME280;66121;52.584;9.694;2023-04-01T02:27:31;99142.69;;;8.94;96.87
77147;BME280;66121;52.584;9.694;2023-04-01T02:29:57;99146.56;;;9.00;97.04
77147;BME280;66121;52.584;9.694;2023-04-01T02:32:23;99142.69;;;8.94;97.25
77147;BME280;66121;52.584;9.694;2023-04-01T02:34:50;99152.50;;;8.95;97.91
77147;BME280;66121;52.584;9.694;2023-04-01T02:37:16;99153.63;;;9.01;96.70
77147;BME280;66121;52.584;9.694;2023-04-01T02:39:42;99150.53;;;8.96;96.94
77147;BME280;66121;52.584;9.694;2023-04-01T02:42:08;99148.94;;;8.98;97.23
77147;BME280;66121;52.584;9.694;2023-04-01T02:44:34;99148.56;;;8.96;97.23
77147;BME280;66121;52.584;9.694;2023-04-01T02:46:59;99154.84;;;8.97;96.75
77147;BME280;66121;52.584;9.694;2023-04-01T02:49:25;99157.97;;;8.99;97.34
77147;BME280;66121;52.584;9.694;2023-04-01T02:51:50;99156.47;;;8.94;97.09
77147;BME280;66121;52.584;9.694;2023-04-01T02:54:17;99152.19;;;8.90;96.94
77147;BME280;66121;52.584;9.694;2023-04-01T02:56:42;99157.19;;;8.98;97.31
77147;BME280;66121;52.584;9.694;2023-04-01T02:59:07;99156.47;;;8.94;96.40
77147;BME280;66121;52.584;9.694;2023-04-01T03:01:33;99161.47;;;9.03;96.34
77147;BME280;66121;52.584;9.694;2023-04-01T03:03:58;99166.16;;;9.02;96.23
77147;BME280;66121;52.584;9.694;2023-04-01T03:06:23;99176.41;;;9.02;96.59
77147;BME280;66121;52.584;9.694;2023-04-01T03:08:49;99173.59;;;9.09;95.81
77147;BME280;66121;52.584;9.694;2023-04-01T03:11:14;99163.88;;;8.97;95.79
77147;BME280;66121;52.584;9.694;2023-04-01T03:13:39;99167.31;;;9.08;96.26
77147;BME280;66121;52.584;9.694;2023-04-01T03:16:05;99161.06;;;9.04;95.25
77147;BME280;66121;52.584;9.694;2023-04-01T03:18:30;99173.63;;;9.05;95.88
77147;BME280;66121;52.584;9.694;2023-04-01T03:20:55;99174.75;;;9.08;95.52
77147;BME280;66121;52.584;9.694;2023-04-01T03:23:21;99175.22;;;9.03;95.29
77147;BME280;66121;52.584;9.694;2023-04-01T03:25:47;99175.22;;;9.03;94.80
77147;BME280;66121;52.584;9.694;2023-04-01T03:28:13;99167.00;;;8.99;95.81
77147;BME280;66121;52.584;9.694;2023-04-01T03:30:39;99153.28;;;8.96;95.75
77147;BME280;66121;52.584;9.694;2023-04-01T03:33:05;99166.94;;;9.06;95.36
77147;BME280;66121;52.584;9.694;2023-04-01T03:35:31;99171.28;;;9.04;96.02
77147;BME280;66121;52.584;9.694;2023-04-01T03:37:57;99167.81;;;8.96;96.14
77147;BME280;66121;52.584;9.694;2023-04-01T03:40:23;99167.78;;;9.00;96.09
77147;BME280;66121;52.584;9.694;2023-04-01T03:42:48;99182.38;;;8.97;96.32
77147;BME280;66121;52.584;9.694;2023-04-01T03:45:14;99178.84;;;8.93;96.72
77147;BME280;66121;52.584;9.694;2023-04-01T03:47:40;99176.09;;;8.93;96.81
77147;BME280;66121;52.584;9.694;2023-04-01T03:50:06;99179.63;;;8.93;96.04
77147;BME280;66121;52.584;9.694;2023-04-01T03:52:31;99174.94;;;8.90;96.84
77147;BME280;66121;52.584;9.694;2023-04-01T03:54:57;99177.78;;;8.83;96.80
77147;BME280;66121;52.584;9.694;2023-04-01T03:57:22;99178.13;;;8.85;96.29
77147;BME280;66121;52.584;9.694;2023-04-01T03:59:48;99180.09;;;8.88;96.75
77147;BME280;66121;52.584;9.694;2023-04-01T04:02:13;99183.53;;;8.96;96.48
77147;BME280;66121;52.584;9.694;2023-04-01T04:04:38;99179.63;;;8.97;95.94
77147;BME280;66121;52.584;9.694;2023-04-01T04:07:03;99184.69;;;9.02;95.78
77147;BME280;66121;52.584;9.694;2023-04-01T04:09:32;99166.75;;;8.87;96.90
77147;BME280;66121;52.584;9.694;2023-04-01T04:11:58;99189.13;;;8.89;97.31
77147;BME280;66121;52.584;9.694;2023-04-01T04:14:24;99185.22;;;8.86;97.13
77147;BME280;66121;52.584;9.694;2023-04-01T04:16:49;99184.47;;;8.82;97.58
77147;BME280;66121;52.584;9.694;2023-04-01T04:19:14;99187.66;;;8.77;97.91
77147;BME280;66121;52.584;9.694;2023-04-01T04:21:41;99187.97;;;8.86;97.86
77147;BME280;66121;52.584;9.694;2023-04-01T04:24:07;99193.50;;;8.83;97.71
77147;BME280;66121;52.584;9.694;2023-04-01T04:26:33;99191.50;;;8.87;97.15
77147;BME280;66121;52.584;9.694;2023-04-01T04:28:58;99198.97;;;8.86;97.54
77147;BME280;66121;52.584;9.694;2023-04-01T04:31:25;99199.38;;;8.85;97.08
77147;BME280;66121;52.584;9.694;2023-04-01T04:33:51;99200.94;;;8.86;97.17
77147;BME280;66121;52.584;9.694;2023-04-01T04:36:17;99198.25;;;8.79;97.98
77147;BME280;66121;52.584;9.694;2023-04-01T04:38:42;99200.59;;;8.80;97.94
77147;BME280;66121;52.584;9.694;2023-04-01T04:41:12;99202.19;;;8.78;97.78
77147;BME280;66121;52.584;9.694;2023-04-01T04:43:39;99206.88;;;8.81;97.84
77147;BME280;66121;52.584;9.694;2023-04-01T04:46:09;99208.06;;;8.80;98.06
77147;BME280;66121;52.584;9.694;2023-04-01T04:48:35;99205.78;;;8.71;98.52
77147;BME280;66121;52.584;9.694;2023-04-01T04:51:00;99208.81;;;8.84;98.66
77147;BME280;66121;52.584;9.694;2023-04-01T04:53:26;99199.06;;;8.76;98.23
77147;BME280;66121;52.584;9.694;2023-04-01T04:55:52;99208.88;;;8.77;97.95
77147;BME280;66121;52.584;9.694;2023-04-01T04:58:17;99215.56;;;8.76;98.16
77147;BME280;66121;52.584;9.694;2023-04-01T05:00:43;99212.81;;;8.76;97.70
77147;BME280;66121;52.584;9.694;2023-04-01T05:03:09;99212.47;;;8.70;98.11
77147;BME280;66121;52.584;9.694;2023-04-01T05:05:35;99219.91;;;8.73;98.35
77147;BME280;66121;52.584;9.694;2023-04-01T05:08:01;99223.03;;;8.75;98.13
77147;BME280;66121;52.584;9.694;2023-04-01T05:10:26;99217.59;;;8.68;98.44
77147;BME280;66121;52.584;9.694;2023-04-01T05:12:51;99212.00;;;8.79;98.16
77147;BME280;66121;52.584;9.694;2023-04-01T05:15:16;99223.38;;;8.81;98.19
77147;BME280;66121;52.584;9.694;2023-04-01T05:17:42;99225.75;;;8.79;98.03
77147;BME280;66121;52.584;9.694;2023-04-01T05:20:07;99220.69;;;8.74;98.24
77147;BME280;66121;52.584;9.694;2023-04-01T05:22:33;99224.22;;;8.74;98.73
77147;BME280;66121;52.584;9.694;2023-04-01T05:24:58;99223.84;;;8.72;98.69
77147;BME280;66121;52.584;9.694;2023-04-01T05:27:23;99225.38;;;8.77;99.34
77147;BME280;66121;52.584;9.694;2023-04-01T05:29:49;99226.16;;;8.77;98.73
77147;BME280;66121;52.584;9.694;2023-04-01T05:32:14;99231.28;;;8.75;98.76
77147;BME280;66121;52.584;9.694;2023-04-01T05:34:40;99227.72;;;8.78;99.12
77147;BME280;66121;52.584;9.694;2023-04-01T05:37:05;99220.69;;;8.74;98.89
77147;BME280;66121;52.584;9.694;2023-04-01T05:39:36;99231.25;;;8.79;99.10
77147;BME280;66121;52.584;9.694;2023-04-01T05:42:01;99223.41;;;8.77;99.88
77147;BME280;66121;52.584;9.694;2023-04-01T05:44:26;99238.34;;;8.76;99.37
77147;BME280;66121;52.584;9.694;2023-04-01T05:46:51;99238.78;;;8.71;99.88
77147;BME280;66121;52.584;9.694;2023-04-01T05:49:17;99229.31;;;8.76;99.29
77147;BME280;66121;52.584;9.694;2023-04-01T05:51:42;99238.28;;;8.83;99.56
77147;BME280;66121;52.584;9.694;2023-04-01T05:54:07;99239.84;;;8.84;99.62
77147;BME280;66121;52.584;9.694;2023-04-01T05:56:33;99241.44;;;8.82;99.48
77147;BME280;66121;52.584;9.694;2023-04-01T05:58:58;99243.75;;;8.87;99.54
77147;BME280;66121;52.584;9.694;2023-04-01T06:01:23;99252.38;;;8.89;98.81
77147;BME280;66121;52.584;9.694;2023-04-01T06:03:48;99249.19;;;8.94;98.89
77147;BME280;66121;52.584;9.694;2023-04-01T06:06:23;99250.31;;;9.00;99.03
77147;BME280;66121;52.584;9.694;2023-04-01T06:08:49;99251.47;;;9.02;98.59
77147;BME280;66121;52.584;9.694;2023-04-01T06:11:31;99255.34;;;9.08;99.07
77147;BME280;66121;52.584;9.694;2023-04-01T06:14:11;99254.03;;;9.20;98.03
77147;BME280;66121;52.584;9.694;2023-04-01T06:19:34;99253.66;;;9.22;97.24
77147;BME280;66121;52.584;9.694;2023-04-01T06:27:36;99256.78;;;9.20;97.60
77147;BME280;66121;52.584;9.694;2023-04-01T06:30:33;99253.56;;;9.32;98.23
77147;BME280;66121;52.584;9.694;2023-04-01T06:38:46;99273.00;;;9.52;97.61
77147;BME280;66121;52.584;9.694;2023-04-01T06:50:11;99280.31;;;9.99;95.36
77147;BME280;66121;52.584;9.694;2023-04-01T06:52:50;99283.31;;;10.12;96.24
77147;BME280;66121;52.584;9.694;2023-04-01T06:58:06;99276.63;;;10.09;96.26
77147;BME280;66121;52.584;9.694;2023-04-01T07:00:39;99283.69;;;10.14;95.67
77147;BME280;66121;52.584;9.694;2023-04-01T07:03:26;99286.31;;;10.51;94.61
77147;BME280;66121;52.584;9.694;2023-04-01T07:05:59;99287.81;;;10.56;93.94
77147;BME280;66121;52.584;9.694;2023-04-01T07:08:28;99288.72;;;10.72;93.74
77147;BME280;66121;52.584;9.694;2023-04-01T07:10:58;99291.13;;;10.70;92.66
77147;BME280;66121;52.584;9.694;2023-04-01T07:13:32;99304.31;;;10.86;93.41
77147;BME280;66121;52.584;9.694;2023-04-01T07:16:13;99301.53;;;10.86;92.56
77147;BME280;66121;52.584;9.694;2023-04-01T07:18:48;99289.19;;;10.94;92.71
77147;BME280;66121;52.584;9.694;2023-04-01T07:21:42;99307.66;;;10.97;92.24
77147;BME280;66121;52.584;9.694;2023-04-01T07:24:21;99303.41;;;10.92;91.08
77147;BME280;66121;52.584;9.694;2023-04-01T07:26:52;99305.81;;;10.90;92.01
77147;BME280;66121;52.584;9.694;2023-04-01T07:29:18;99314.31;;;10.99;92.27
77147;BME280;66121;52.584;9.694;2023-04-01T07:32:10;99309.75;;;10.89;88.81
77147;BME280;66121;52.584;9.694;2023-04-01T07:34:50;99314.50;;;10.89;92.76
77147;BME280;66121;52.584;9.694;2023-04-01T07:42:50;99325.47;;;10.92;91.01
77147;BME280;66121;52.584;9.694;2023-04-01T07:45:23;99336.72;;;11.05;92.18
77147;BME280;66121;52.584;9.694;2023-04-01T07:48:18;99334.72;;;11.06;89.31
77147;BME280;66121;52.584;9.694;2023-04-01T07:51:01;99338.03;;;11.20;89.77
77147;BME280;66121;52.584;9.694;2023-04-01T07:53:31;99342.09;;;11.12;91.62
77147;BME280;66121;52.584;9.694;2023-04-01T07:56:06;99338.81;;;11.21;90.16
77147;BME280;66121;52.584;9.694;2023-04-01T07:58:52;99345.56;;;10.93;87.69
77147;BME280;66121;52.584;9.694;2023-04-01T08:01:35;99341.03;;;10.79;90.95
77147;BME280;66121;52.584;9.694;2023-04-01T08:09:36;99358.19;;;11.17;90.84
77147;BME280;66121;52.584;9.694;2023-04-01T08:12:31;99359.56;;;11.06;87.66
77147;BME280;66121;52.584;9.694;2023-04-01T08:15:21;99363.25;;;11.22;90.02
77147;BME280;66121;52.584;9.694;2023-04-01T08:18:19;99362.66;;;11.11;88.48
77147;BME280;66121;52.584;9.694;2023-04-01T08:20:53;99362.59;;;11.38;88.80
77147;BME280;66121;52.584;9.694;2023-04-01T08:23:42;99361.94;;;11.30;88.37
77147;BME280;66121;52.584;9.694;2023-04-01T08:29:09;99377.03;;;11.22;87.66
77147;BME280;66121;52.584;9.694;2023-04-01T08:31:53;99382.84;;;11.31;86.93
77147;BME280;66121;52.584;9.694;2023-04-01T08:34:23;99380.47;;;11.30;85.63
77147;BME280;66121;52.584;9.694;2023-04-01T08:36:54;99383.31;;;11.49;87.57
77147;BME280;66121;52.584;9.694;2023-04-01T08:39:44;99380.66;;;11.42;86.30
77147;BME280;66121;52.584;9.694;2023-04-01T08:45:07;99386.69;;;11.84;84.97
77147;BME280;66121;52.584;9.694;2023-04-01T08:47:56;99384.44;;;11.98;83.69
77147;BME280;66121;52.584;9.694;2023-04-01T09:04:32;99389.06;;;13.48;79.65
77147;BME280;66121;52.584;9.694;2023-04-01T09:15:37;99391.84;;;13.16;77.70
77147;BME280;66121;52.584;9.694;2023-04-01T09:18:28;99396.34;;;12.90;78.55
77147;BME280;66121;52.584;9.694;2023-04-01T09:21:11;99401.81;;;12.58;77.75
77147;BME280;66121;52.584;9.694;2023-04-01T09:34:53;99418.94;;;12.69;79.74
77147;BME280;66121;52.584;9.694;2023-04-01T09:37:42;99417.31;;;12.71;79.19
77147;BME280;66121;52.584;9.694;2023-04-01T09:40:25;99420.06;;;12.71;78.92
77147;BME280;66121;52.584;9.694;2023-04-01T09:45:56;99424.13;;;12.67;80.14
77147;BME280;66121;52.584;9.694;2023-04-01T09:51:32;99427.63;;;12.51;79.11
77147;BME280;66121;52.584;9.694;2023-04-01T09:54:20;99430.13;;;12.26;79.17
77147;BME280;66121;52.584;9.694;2023-04-01T10:08:15;99444.81;;;12.00;83.17
77147;BME280;66121;52.584;9.694;2023-04-01T10:16:41;99453.13;;;11.77;83.18
77147;BME280;66121;52.584;9.694;2023-04-01T10:25:03;99459.72;;;12.06;83.18
77147;BME280;66121;52.584;9.694;2023-04-01T10:33:35;99455.69;;;12.89;79.34
77147;BME280;66121;52.584;9.694;2023-04-01T10:39:20;99460.03;;;12.90;81.51
77147;BME280;66121;52.584;9.694;2023-04-01T10:45:13;99464.56;;;12.80;78.93
77147;BME280;66121;52.584;9.694;2023-04-01T10:48:10;99461.53;;;12.75;79.44
77147;BME280;66121;52.584;9.694;2023-04-01T11:04:57;99470.84;;;12.02;79.67
77147;BME280;66121;52.584;9.694;2023-04-01T11:13:34;99495.91;;;11.69;85.02
77147;BME280;66121;52.584;9.694;2023-04-01T11:16:24;99489.41;;;11.52;85.16
77147;BME280;66121;52.584;9.694;2023-04-01T11:19:34;99499.47;;;11.65;85.55
77147;BME280;66121;52.584;9.694;2023-04-01T11:22:37;99505.34;;;11.94;85.92
77147;BME280;66121;52.584;9.694;2023-04-01T11:33:48;99509.84;;;12.08;85.93
77147;BME280;66121;52.584;9.694;2023-04-01T11:36:33;99511.25;;;11.96;84.75
77147;BME280;66121;52.584;9.694;2023-04-01T11:41:49;99518.72;;;11.73;87.48
77147;BME280;66121;52.584;9.694;2023-04-01T11:44:25;99532.53;;;11.46;87.79
77147;BME280;66121;52.584;9.694;2023-04-01T11:52:33;99538.44;;;11.44;87.55
77147;BME280;66121;52.584;9.694;2023-04-01T11:55:26;99543.84;;;11.55;87.83
77147;BME280;66121;52.584;9.694;2023-04-01T12:08:53;99562.38;;;12.08;87.57
77147;BME280;66121;52.584;9.694;2023-04-01T12:11:28;99559.19;;;12.09;87.81
77147;BME280;66121;52.584;9.694;2023-04-01T12:14:05;99569.84;;;12.11;86.25
77147;BME280;66121;52.584;9.694;2023-04-01T12:16:37;99569.28;;;12.19;87.91
77147;BME280;66121;52.584;9.694;2023-04-01T12:28:45;99581.69;;;11.85;88.75
77147;BME280;66121;52.584;9.694;2023-04-01T12:36:46;99584.03;;;11.59;88.56
77147;BME280;66121;52.584;9.694;2023-04-01T12:50:54;99608.97;;;11.22;91.26
77147;BME280;66121;52.584;9.694;2023-04-01T12:56:14;99628.56;;;10.64;90.80
77147;BME280;66121;52.584;9.694;2023-04-01T12:58:46;99623.06;;;10.19;91.75
77147;BME280;66121;52.584;9.694;2023-04-01T13:04:28;99637.38;;;9.93;93.04
77147;BME280;66121;52.584;9.694;2023-04-01T13:15:05;99670.31;;;9.45;92.65
77147;BME280;66121;52.584;9.694;2023-04-01T13:23:01;99675.09;;;9.31;93.43
77147;BME280;66121;52.584;9.694;2023-04-01T13:28:34;99684.59;;;9.05;93.82
77147;BME280;66121;52.584;9.694;2023-04-01T13:31:02;99697.19;;;9.02;94.04
77147;BME280;66121;52.584;9.694;2023-04-01T13:33:47;99695.66;;;8.94;94.35
77147;BME280;66121;52.584;9.694;2023-04-01T13:39:17;99711.75;;;8.89;94.06
77147;BME280;66121;52.584;9.694;2023-04-01T13:44:34;99716.09;;;8.76;94.42
77147;BME280;66121;52.584;9.694;2023-04-01T13:50:16;99722.78;;;8.68;94.61
77147;BME280;66121;52.584;9.694;2023-04-01T13:52:56;99733.38;;;8.66;93.89
77147;BME280;66121;52.584;9.694;2023-04-01T13:55:37;99734.97;;;8.60;93.73
77147;BME280;66121;52.584;9.694;2023-04-01T14:12:12;99751.06;;;8.58;95.20
77147;BME280;66121;52.584;9.694;2023-04-01T14:23:29;99779.31;;;8.40;94.25
77147;BME280;66121;52.584;9.694;2023-04-01T14:25:58;99783.63;;;8.45;93.89
77147;BME280;66121;52.584;9.694;2023-04-01T14:31:40;99786.00;;;8.39;94.56
77147;BME280;66121;52.584;9.694;2023-04-01T14:34:25;99790.31;;;8.33;95.04
77147;BME280;66121;52.584;9.694;2023-04-01T14:37:31;99795.38;;;8.28;94.10
77147;BME280;66121;52.584;9.694;2023-04-01T14:51:34;99824.38;;;8.11;93.15
77147;BME280;66121;52.584;9.694;2023-04-01T14:56:40;99823.97;;;8.09;93.94
77147;BME280;66121;52.584;9.694;2023-04-01T14:59:29;99830.22;;;8.03;93.88
77147;BME280;66121;52.584;9.694;2023-04-01T15:05:16;99848.66;;;8.06;94.47
77147;BME280;66121;52.584;9.694;2023-04-01T15:08:09;99855.69;;;7.96;93.92
77147;BME280;66121;52.584;9.694;2023-04-01T15:11:09;99862.75;;;7.90;94.01
77147;BME280;66121;52.584;9.694;2023-04-01T15:16:41;99863.84;;;7.75;94.98
77147;BME280;66121;52.584;9.694;2023-04-01T15:31:14;99900.50;;;7.46;93.43
77147;BME280;66121;52.584;9.694;2023-04-01T15:34:07;99903.69;;;7.51;93.69
77147;BME280;66121;52.584;9.694;2023-04-01T15:37:14;99905.22;;;7.45;93.16
77147;BME280;66121;52.584;9.694;2023-04-01T15:42:31;99915.41;;;7.45;94.39
77147;BME280;66121;52.584;9.694;2023-04-01T15:47:41;99926.00;;;7.43;95.08
77147;BME280;66121;52.584;9.694;2023-04-01T15:50:34;99942.06;;;7.44;94.81
77147;BME280;66121;52.584;9.694;2023-04-01T15:55:55;99940.31;;;7.22;93.40
77147;BME280;66121;52.584;9.694;2023-04-01T16:00:53;99950.09;;;7.23;93.67
77147;BME280;66121;52.584;9.694;2023-04-01T16:03:35;99955.19;;;7.21;94.47
77147;BME280;66121;52.584;9.694;2023-04-01T16:08:53;99966.09;;;7.14;93.54
77147;BME280;66121;52.584;9.694;2023-04-01T16:14:21;99979.41;;;7.15;94.28
77147;BME280;66121;52.584;9.694;2023-04-01T16:19:36;99989.91;;;7.03;95.08
77147;BME280;66121;52.584;9.694;2023-04-01T16:22:23;99995.66;;;6.94;94.87
77147;BME280;66121;52.584;9.694;2023-04-01T16:24:53;99997.22;;;6.92;94.58
77147;BME280;66121;52.584;9.694;2023-04-01T16:27:40;99997.53;;;6.87;94.30
77147;BME280;66121;52.584;9.694;2023-04-01T16:33:02;100019.75;;;6.75;94.24
77147;BME280;66121;52.584;9.694;2023-04-01T16:35:35;100025.13;;;6.68;94.26
77147;BME280;66121;52.584;9.694;2023-04-01T16:38:22;100021.97;;;6.66;94.95
77147;BME280;66121;52.584;9.694;2023-04-01T16:43:48;100038.63;;;6.50;94.81
77147;BME280;66121;52.584;9.694;2023-04-01T16:47:05;100040.94;;;6.48;94.23
77147;BME280;66121;52.584;9.694;2023-04-01T16:49:30;100050.31;;;6.47;93.85
77147;BME280;66121;52.584;9.694;2023-04-01T16:54:42;100061.59;;;6.42;94.17
77147;BME280;66121;52.584;9.694;2023-04-01T17:00:03;100089.47;;;6.47;93.76
77147;BME280;66121;52.584;9.694;2023-04-01T17:08:28;100104.84;;;6.29;94.57
77147;BME280;66121;52.584;9.694;2023-04-01T17:11:18;100109.06;;;6.23;94.29
77147;BME280;66121;52.584;9.694;2023-04-01T17:14:02;100113.31;;;6.21;94.27
77147;BME280;66121;52.584;9.694;2023-04-01T17:19:46;100121.00;;;6.12;93.96
77147;BME280;66121;52.584;9.694;2023-04-01T17:27:50;100141.66;;;6.06;94.70
77147;BME280;66121;52.584;9.694;2023-04-01T17:30:40;100151.41;;;6.03;94.53
77147;BME280;66121;52.584;9.694;2023-04-01T17:33:43;100154.19;;;6.07;94.37
77147;BME280;66121;52.584;9.694;2023-04-01T17:36:55;100163.19;;;5.84;94.25
77147;BME280;66121;52.584;9.694;2023-04-01T17:39:30;100173.84;;;5.90;94.74
77147;BME280;66121;52.584;9.694;2023-04-01T17:45:56;100177.06;;;5.76;93.85
77147;BME280;66121;52.584;9.694;2023-04-01T17:50:44;100186.66;;;5.66;94.21
77147;BME280;66121;52.584;9.694;2023-04-01T17:53:32;100202.28;;;5.66;94.54
77147;BME280;66121;52.584;9.694;2023-04-01T17:56:04;100209.72;;;5.65;93.37
77147;BME280;66121;52.584;9.694;2023-04-01T18:01:18;100211.66;;;5.65;94.26
77147;BME280;66121;52.584;9.694;2023-04-01T18:09:29;100239.69;;;5.58;94.20
77147;BME280;66121;52.584;9.694;2023-04-01T18:12:14;100250.97;;;5.57;94.72
77147;BME280;66121;52.584;9.694;2023-04-01T18:20:37;100265.38;;;5.54;93.90
77147;BME280;66121;52.584;9.694;2023-04-01T18:23:30;100273.09;;;5.48;94.39
77147;BME280;66121;52.584;9.694;2023-04-01T18:26:11;100275.03;;;5.48;93.90
77147;BME280;66121;52.584;9.694;2023-04-01T18:28:44;100285.38;;;5.39;93.13
77147;BME280;66121;52.584;9.694;2023-04-01T18:31:20;100290.78;;;5.35;92.99
77147;BME280;66121;52.584;9.694;2023-04-01T18:36:58;100294.09;;;5.25;93.91
77147;BME280;66121;52.584;9.694;2023-04-01T18:39:37;100305.81;;;5.26;93.72
77147;BME280;66121;52.584;9.694;2023-04-01T18:42:50;100310.94;;;5.27;94.03
77147;BME280;66121;52.584;9.694;2023-04-01T18:45:23;100320.28;;;5.26;94.75
77147;BME280;66121;52.584;9.694;2023-04-01T18:51:01;100338.66;;;5.26;95.00
77147;BME280;66121;52.584;9.694;2023-04-01T18:53:46;100334.03;;;5.30;95.51
77147;BME280;66121;52.584;9.694;2023-04-01T18:56:25;100342.41;;;5.21;94.91
77147;BME280;66121;52.584;9.694;2023-04-01T18:58:58;100353.03;;;5.22;94.83
77147;BME280;66121;52.584;9.694;2023-04-01T19:01:42;100362.13;;;5.11;93.97
77147;BME280;66121;52.584;9.694;2023-04-01T19:04:26;100372.72;;;5.12;94.90
77147;BME280;66121;52.584;9.694;2023-04-01T19:06:58;100367.13;;;5.09;94.49
77147;BME280;66121;52.584;9.694;2023-04-01T19:09:33;100369.97;;;5.12;94.87
77147;BME280;66121;52.584;9.694;2023-04-01T19:20:57;100403.31;;;5.02;94.76
77147;BME280;66121;52.584;9.694;2023-04-01T19:26:17;100414.69;;;5.04;94.33
77147;BME280;66121;52.584;9.694;2023-04-01T19:29:02;100419.88;;;4.94;95.05
77147;BME280;66121;52.584;9.694;2023-04-01T19:34:37;100430.47;;;4.80;94.75
77147;BME280;66121;52.584;9.694;2023-04-01T19:37:28;100432.22;;;4.72;93.78
77147;BME280;66121;52.584;9.694;2023-04-01T19:45:41;100454.81;;;4.57;94.44
77147;BME280;66121;52.584;9.694;2023-04-01T19:48:32;100460.22;;;4.53;94.74
77147;BME280;66121;52.584;9.694;2023-04-01T19:51:13;100471.03;;;4.50;93.99
77147;BME280;66121;52.584;9.694;2023-04-01T19:53:46;100478.66;;;4.44;93.86
77147;BME280;66121;52.584;9.694;2023-04-01T19:56:18;100469.41;;;4.49;94.05
77147;BME280;66121;52.584;9.694;2023-04-01T20:01:28;100495.66;;;4.38;94.50
77147;BME280;66121;52.584;9.694;2023-04-01T20:04:03;100499.72;;;4.44;93.99
77147;BME280;66121;52.584;9.694;2023-04-01T20:07:07;100502.81;;;4.42;94.07
77147;BME280;66121;52.584;9.694;2023-04-01T20:09:46;100502.13;;;4.45;93.53
77147;BME280;66121;52.584;9.694;2023-04-01T20:15:22;100521.81;;;4.39;94.43
77147;BME280;66121;52.584;9.694;2023-04-01T20:17:52;100524.91;;;4.37;94.50
77147;BME280;66121;52.584;9.694;2023-04-01T20:25:16;100542.22;;;4.29;94.47
77147;BME280;66121;52.584;9.694;2023-04-01T20:27:51;100551.88;;;4.27;93.87
77147;BME280;66121;52.584;9.694;2023-04-01T20:35:37;100565.13;;;4.13;93.61